Logo AVAMET
Benvolgut visitant, si us plau, ingressa Recuperar contrasenya
AVAMET paisatges

Dolores

Dades diàries. Acumulats / Últims 30 dies disponibles

Data Temperatura (°C) Humitat rel. (%) Pressió rel. (hPa) Vent (km/h) Precipitació
Mínima Mitjana Màxima Amplitud
tèrmica
Mínima Mitjana Màxima Mínima Mitjana Màxima Predom. Mitjana Ràfega
màxima
Total
(mm)
Índex-n
Mínima Mitjana Màxima Mínima Mitjana Màxima n
0 a 1
P0 max
mm 5'
Dades mensuals acumulades fins l'últim dia disponible
02/2020 3,5 8,4 12,8 14,9 16,1 21,4 26,6 23,1 10 68 99 1.013 1.020 1.024   40,0 0,5
Dades anuals acumulades fins l'últim dia disponible
2020 1,1 7,1 12,8 13,3 13,4 19,5 26,6 25,5 10 70 99 1.012 1.018 1.031   74,0 48,9
Últims 30 dies disponibles
28-02-2020 9,9     17,0     24,1 14,2 23 52 80 1.024 1.024 1.024 26,0 0,0
27-02-2020 8,8     16,6     24,5 15,7 25 55 84 1.024 1.024 1.024 32,0 0,0
26-02-2020 10,5     17,1     23,7 13,2 20 54 87 1.024 1.024 1.024 40,0 0,0
25-02-2020 6,2     16,2     26,3 20,1 20 57 94 1.024 1.024 1.024 37,0 0,0
24-02-2020 3,5     12,7     21,9 18,4 31 64 96 1.024 1.024 1.024 22,0 0,0
23-02-2020 3,7     12,9     22,1 18,4 15 57 99 1.024 1.024 1.024 25,0 0,0
21-02-2020 4,8     11,1     17,4 12,6 58 79 99 1.024 1.024 1.024 22,0 0,0
20-02-2020 7,2     12,6     17,9 10,7 51 75 99 1.024 1.024 1.024 23,0 0,3
19-02-2020 10,5     14,1     17,7 7,2 55 75 95 1.024 1.024 1.024 22,0 0,1
18-02-2020 12,8     14,4     16,1 3,3 79 88 96 1.024 1.024 1.024 28,0 0,1
17-02-2020 9,0     17,0     25,0 16,0 37 68 99 1.024 1.024 1.024 19,0 0,0
16-02-2020 7,7     13,8     20,0 12,3 62 81 99 1.024 1.024 1.024 19,0 0,0
15-02-2020 6,2     13,0     19,8 13,6 51 75 99 1.024 1.024 1.024 25,0 0,0
14-02-2020 8,6     15,2     21,8 13,2 43 69 95 1.024 1.024 1.024 20,0 0,0
13-02-2020 9,9     16,1     22,4 12,5 48 74 99 1.024 1.024 1.024 23,0 0,0
12-02-2020 11,0     15,6     20,1 9,1 51 75 99 1.024 1.024 1.024 30,0 0,0
11-02-2020 10,4     17,9     25,4 15,0 40 66 91 1.013 1.019 1.024 17,0 0,0
10-02-2020 8,1     15,7     23,3 15,2 36 67 98 1.013 1.013 1.013 25,0 0,0
09-02-2020 9,2     13,8     18,5 9,3 60 78 96 1.013 1.013 1.013 23,0 0,0
08-02-2020 6,0     13,4     20,8 14,8 43 71 99 1.013 1.013 1.013 17,0 0,0
07-02-2020 6,9     12,0     17,1 10,2 53 75 96 1.013 1.013 1.013 19,0 0,0
06-02-2020 5,5     11,3     17,1 11,6 50 75 99 1.013 1.013 1.013 19,0 0,0
05-02-2020 9,7     13,2     16,6 6,9 63 79 94 1.013 1.013 1.013 25,0 0,0
04-02-2020 9,2     17,9     26,6 17,4 23 58 92 1.013 1.013 1.013 36,0 0,0
03-02-2020 9,5     17,1     24,7 15,2 36 65 94 1.013 1.013 1.013 17,0 0,0
02-02-2020 11,9     17,8     23,7 11,8 10 51 91 1.013 1.013 1.013 22,0 0,0
01-02-2020 11,0     17,4     23,9 12,9 44 65 86 1.013 1.013 1.013 39,0 0,0
31-01-2020 12,2     17,4     22,6 10,4 42 58 74 1.013 1.013 1.013 26,0 0,0
30-01-2020 9,1     15,9     22,8 13,7 10 50 89 1.013 1.013 1.013 19,0 0,0
29-01-2020 9,5     15,9     22,4 12,9 45 66 87 1.013 1.013 1.013 22,0 0,0
Últims 13 mesos disponibles
01/2020 1,1 5,9 12,2 11,8 13,4 17,7 22,8 21,7 50 71 83 1.012 1.016 1.025 74,0 48,4
12/2019 4,9 8,7 17,7 14,0 14,7 19,2 26,0 21,1 38 66 84 1.013 1.015 1.016 49,0 32,6
11/2019 4,4 10,9 18,9 15,9 14,5 21,0 28,7 24,3 40 55 93 1.001 1.011 1.018 69,0 13,7
10/2019 9,8 14,8 20,8 20,6 16,2 26,4 34,7 24,9 46 65 86 1.009 1.017 1.023 39,0 20,4
09/2019 16,4 20,5 23,1 24,5 21,9 28,6 33,4 17,0 49 69 81 1.008 1.015 1.020 54,0 147,7
08/2019 18,7 21,2 24,0 26,8 28,7 32,4 40,2 21,5 48 65 75 1.011 1.016 1.021 48,0 28,0
07/2019 18,9 21,3 25,4 27,1 29,3 33,0 37,6 18,7 44 57 71 1.006 1.013 1.021 45,0 0,0
06/2019 11,7 16,8 20,8 22,9 23,8 29,0 36,1 24,4 43 59 75 1.009 1.014 1.024 69,0 0,0
05/2019 9,9 13,9 18,9 19,6 21,0 25,3 31,8 21,9 51 62 73 1.004 1.013 1.022 57,0 1,5
04/2019 7,2 10,8 14,1 16,2 14,4 21,5 29,6 22,4 47 62 85 1.002 1.013 1.028 62,0 137,7
03/2019 3,6 7,0 13,2 13,8 14,7 20,7 28,3 24,7 46 59 78 1.012 1.023 1.031 54,0 18,1
02/2019 1,9 5,3 12,1 12,1 14,3 19,0 26,0 24,1 25 60 77 999 1.025 1.034 74,0 0,0
01/2019 -1,2 4,8 13,0 11,2 13,5 17,6 22,5 23,7 31 57 77 1.006 1.019 1.031 55,0 1,3
Tots els anys disponibles
2019 -1,2 13,0 25,4 18,7 13,5 24,5 40,2 41,4 25 61 93 999 1.016 1.034 74,0 401,0
2018 0,8 13,5 25,0 18,8 10,8 24,1 37,2 36,4 34 63 89 994 1.016 1.034 82,0 289,6
Temperatura (°C)
Humitat relativa (%)
Velocitat del vent i ràfega màxima (km/h)
Direcció del vent (°)
Pressió (hPa)
Precipitació (mm)
Nota sobre les dades: s'avisa a l'usuari de la provisionalitat i no oficialitat d'aquestes dades
Logo AVAMET blanc
Web allotjada a Sollutia
Llicència de Creative CommonsLa web d'AVAMET i els seus continguts estan subjectes a una llicència de
Reconeixement - No Comercial - Compartir igual
Últimes estacions:  Forcall (Ajuntament Soci), Sant Joanet (Soci), Marines (Soci), Vilallonga - Serpis (Soci), Sorita (AVAMET), Gorga (Soci) - - -